createdAt,value
2018-02-04T00:02:19.910Z,5.57
2018-02-04T00:04:46.244Z,7.35
2018-02-04T00:07:12.594Z,7.28
2018-02-04T00:09:38.938Z,8.18
2018-02-04T00:12:05.252Z,7.53
2018-02-04T00:14:31.640Z,7.57
2018-02-04T00:16:57.963Z,7.45
2018-02-04T00:19:24.323Z,8.48
2018-02-04T00:21:51.426Z,8.27
2018-02-04T00:24:17.759Z,8.40
2018-02-04T00:26:44.091Z,8.07
2018-02-04T00:29:10.442Z,8.73
2018-02-04T00:31:37.378Z,8.68
2018-02-04T00:34:03.730Z,7.32
2018-02-04T00:36:30.052Z,8.25
2018-02-04T00:38:56.365Z,8.43
2018-02-04T00:41:22.710Z,7.93
2018-02-04T00:43:49.044Z,7.70
2018-02-04T00:46:16.098Z,9.90
2018-02-04T00:48:42.650Z,13.00
2018-02-04T00:51:09.705Z,10.23
2018-02-04T00:53:36.801Z,13.00
2018-02-04T00:56:03.134Z,8.40
2018-02-04T00:58:29.491Z,8.55
2018-02-04T01:00:55.802Z,7.82
2018-02-04T01:03:22.165Z,7.45
2018-02-04T01:05:49.258Z,8.90
2018-02-04T01:08:15.575Z,8.32
2018-02-04T01:10:41.933Z,8.32
2018-02-04T01:13:09.287Z,8.48
2018-02-04T01:15:35.643Z,9.02
2018-02-04T01:18:01.969Z,7.80
2018-02-04T01:20:28.292Z,7.60
2018-02-04T01:22:54.610Z,8.20
2018-02-04T01:25:20.966Z,8.23
2018-02-04T01:27:47.310Z,9.20
2018-02-04T01:30:13.678Z,8.05
2018-02-04T01:32:40.740Z,8.65
2018-02-04T01:35:07.081Z,9.50
2018-02-04T01:37:34.447Z,8.50
2018-02-04T01:40:00.771Z,9.00
2018-02-04T01:42:27.134Z,9.95
2018-02-04T01:44:53.480Z,8.32
2018-02-04T01:47:20.805Z,8.25
2018-02-04T01:49:48.136Z,8.75
2018-02-04T01:52:14.486Z,9.57
2018-02-04T01:54:40.799Z,10.00
2018-02-04T01:57:07.103Z,9.40
2018-02-04T01:59:34.172Z,8.85
2018-02-04T02:02:00.507Z,11.20
2018-02-04T02:04:26.861Z,9.45
2018-02-04T02:06:53.194Z,10.40
2018-02-04T02:09:19.542Z,9.45
2018-02-04T02:11:45.850Z,10.02
2018-02-04T02:14:12.160Z,8.82
2018-02-04T02:16:38.503Z,8.80
2018-02-04T02:19:04.854Z,8.20
2018-02-04T02:21:31.195Z,8.05
2018-02-04T02:23:57.527Z,8.52
2018-02-04T02:26:23.905Z,7.87
2018-02-04T02:28:50.311Z,9.18
2018-02-04T02:31:17.410Z,8.95
2018-02-04T02:33:43.752Z,8.45
2018-02-04T02:36:10.095Z,9.27
2018-02-04T02:38:37.227Z,9.18
2018-02-04T02:41:03.574Z,7.53
2018-02-04T02:43:29.907Z,8.65
2018-02-04T02:45:57.267Z,8.27
2018-02-04T02:48:24.614Z,9.32
2018-02-04T02:50:51.963Z,10.35
2018-02-04T02:53:18.317Z,8.60
2018-02-04T02:55:44.664Z,10.02
2018-02-04T02:58:11.723Z,11.00
2018-02-04T03:00:38.054Z,9.15
2018-02-04T03:03:05.124Z,10.88
2018-02-04T03:05:32.467Z,9.45
2018-02-04T03:07:58.805Z,11.55
2018-02-04T03:10:25.166Z,9.50
2018-02-04T03:12:51.498Z,10.57
2018-02-04T03:15:17.846Z,10.70
2018-02-04T03:17:44.163Z,11.25
2018-02-04T03:20:11.519Z,10.32
2018-02-04T03:22:37.840Z,10.48
2018-02-04T03:25:04.186Z,11.07
2018-02-04T03:27:30.506Z,10.00
2018-02-04T03:29:56.860Z,10.25
2018-02-04T03:32:23.194Z,8.43
2018-02-04T03:34:49.498Z,8.85
2018-02-04T03:37:15.843Z,9.95
2018-02-04T03:39:42.180Z,10.10
2018-02-04T03:42:08.487Z,10.40
2018-02-04T03:44:34.817Z,11.27
2018-02-04T03:47:01.175Z,10.48
2018-02-04T03:49:28.355Z,9.88
2018-02-04T03:51:55.668Z,9.27
2018-02-04T03:54:22.004Z,9.30
2018-02-04T03:56:48.622Z,9.55
2018-02-04T03:59:15.010Z,10.48
2018-02-04T04:01:41.334Z,11.65
2018-02-04T04:04:08.395Z,10.20
2018-02-04T04:06:34.743Z,9.13
2018-02-04T04:09:01.090Z,9.85
2018-02-04T04:11:27.414Z,9.35
2018-02-04T04:13:53.747Z,10.50
2018-02-04T04:16:20.060Z,10.95
2018-02-04T04:18:46.379Z,9.90
2018-02-04T04:21:12.714Z,10.43
2018-02-04T04:23:39.082Z,10.63
2018-02-04T04:26:05.397Z,10.18
2018-02-04T04:28:31.727Z,10.43
2018-02-04T04:30:58.031Z,10.80
2018-02-04T04:33:24.361Z,10.07
2018-02-04T04:35:51.450Z,10.30
2018-02-04T04:38:17.783Z,10.07
2018-02-04T04:40:44.696Z,10.02
2018-02-04T04:43:11.030Z,9.93
2018-02-04T04:45:37.622Z,10.60
2018-02-04T04:48:03.925Z,9.80
2018-02-04T04:50:30.286Z,9.00
2018-02-04T04:52:56.622Z,9.07
2018-02-04T04:55:22.935Z,10.98
2018-02-04T04:57:49.282Z,10.30
2018-02-04T05:00:16.396Z,11.20
2018-02-04T05:02:42.722Z,10.38
2018-02-04T05:05:09.041Z,11.68
2018-02-04T05:07:35.458Z,10.18
2018-02-04T05:10:01.783Z,9.70
2018-02-04T05:12:28.838Z,10.40
2018-02-04T05:14:55.705Z,11.50
2018-02-04T05:17:22.059Z,9.77
2018-02-04T05:19:48.402Z,9.40
2018-02-04T05:22:15.731Z,9.98
2018-02-04T05:24:42.055Z,10.80
2018-02-04T05:27:10.011Z,12.02
2018-02-04T05:29:36.326Z,10.18
2018-02-04T05:32:02.655Z,10.15
2018-02-04T05:34:28.986Z,9.05
2018-02-04T05:36:56.043Z,10.43
2018-02-04T05:39:22.366Z,9.18
2018-02-04T05:41:49.454Z,10.00
2018-02-04T05:44:15.982Z,9.00
2018-02-04T05:46:42.331Z,11.30
2018-02-04T05:49:08.664Z,9.70
2018-02-04T05:51:34.974Z,11.32
2018-02-04T05:54:01.291Z,11.05
2018-02-04T05:56:27.610Z,11.80
2018-02-04T05:58:54.683Z,11.35
2018-02-04T06:01:21.012Z,11.43
2018-02-04T06:03:47.337Z,11.85
2018-02-04T06:06:13.682Z,11.48
2018-02-04T06:08:39.994Z,12.13
2018-02-04T06:11:06.322Z,11.75
2018-02-04T06:13:32.639Z,12.52
2018-02-04T06:15:59.732Z,12.55
2018-02-04T06:18:26.051Z,11.93
2018-02-04T06:20:52.426Z,10.70
2018-02-04T06:23:20.854Z,12.40
2018-02-04T06:25:47.206Z,13.55
2018-02-04T06:28:13.576Z,15.05
2018-02-04T06:30:40.655Z,13.85
2018-02-04T06:33:07.015Z,12.10
2018-02-04T06:35:33.366Z,13.60
2018-02-04T06:37:59.675Z,14.52
2018-02-04T06:40:25.982Z,13.32
2018-02-04T06:42:52.312Z,15.40
2018-02-04T06:45:18.632Z,13.02
2018-02-04T06:47:45.690Z,13.55
2018-02-04T06:50:12.031Z,11.82
2018-02-04T06:52:38.351Z,12.50
2018-02-04T06:55:04.674Z,12.52
2018-02-04T06:57:31.010Z,14.30
2018-02-04T06:59:58.313Z,12.13
2018-02-04T07:02:24.693Z,12.10
2018-02-04T07:04:51.040Z,14.15
2018-02-04T07:07:17.342Z,14.05
2018-02-04T07:09:44.412Z,14.23
2018-02-04T07:12:10.731Z,15.13
2018-02-04T07:14:37.782Z,12.90
2018-02-04T07:17:04.102Z,13.70
2018-02-04T07:19:31.186Z,18.80
2018-02-04T07:21:57.559Z,15.10
2018-02-04T07:24:23.890Z,12.25
2018-02-04T07:26:50.223Z,14.45
2018-02-04T07:29:17.570Z,13.48
2018-02-04T07:31:44.938Z,13.48
2018-02-04T07:34:11.256Z,12.45
2018-02-04T07:36:37.582Z,13.82
2018-02-04T07:39:03.967Z,13.65
2018-02-04T07:41:30.286Z,12.43
2018-02-04T07:43:56.607Z,12.93
2018-02-04T07:46:23.695Z,14.35
2018-02-04T07:48:50.042Z,13.93
2018-02-04T07:51:16.347Z,12.80
2018-02-04T07:53:42.658Z,12.75
2018-02-04T07:56:08.978Z,12.52
2018-02-04T07:58:36.036Z,19.15
2018-02-04T08:01:02.358Z,14.90
2018-02-04T08:03:29.457Z,14.50
2018-02-04T08:05:55.767Z,15.32
2018-02-04T08:08:22.077Z,13.20
2018-02-04T08:10:48.387Z,15.50
2018-02-04T08:13:16.452Z,13.90
2018-02-04T08:15:43.519Z,13.25
2018-02-04T08:18:10.594Z,15.15
2018-02-04T08:20:37.930Z,12.30
2018-02-04T08:23:04.243Z,13.02
2018-02-04T08:25:31.338Z,13.93
2018-02-04T08:27:58.178Z,14.85
2018-02-04T08:30:24.497Z,12.13
2018-02-04T08:32:50.835Z,12.43
2018-02-04T08:35:17.144Z,14.93
2018-02-04T08:37:43.502Z,16.30
2018-02-04T08:40:09.842Z,16.30
2018-02-04T08:42:36.172Z,13.48
2018-02-04T08:45:02.519Z,13.23
2018-02-04T08:47:28.826Z,11.80
2018-02-04T08:49:55.147Z,12.48
2018-02-04T08:52:21.482Z,13.98
2018-02-04T08:54:47.849Z,17.35
2018-02-04T08:57:14.194Z,14.75
2018-02-04T08:59:41.274Z,15.73
2018-02-04T09:02:07.590Z,13.10
2018-02-04T09:04:34.664Z,11.88
2018-02-04T09:07:00.977Z,11.20
2018-02-04T09:09:27.338Z,9.27
2018-02-04T09:11:53.656Z,10.00
2018-02-04T09:14:19.974Z,11.68
2018-02-04T09:16:46.303Z,11.25
2018-02-04T09:19:12.652Z,10.68
2018-02-04T09:21:38.990Z,10.63
2018-02-04T09:24:05.374Z,12.60
2018-02-04T09:26:32.443Z,33.53
2018-02-04T09:28:58.766Z,17.48
2018-02-04T09:31:25.814Z,14.00
2018-02-04T09:33:52.123Z,12.30
2018-02-04T09:36:19.201Z,10.43
2018-02-04T09:38:45.515Z,11.35
2018-02-04T09:41:12.598Z,10.18
2018-02-04T09:43:38.925Z,10.43
2018-02-04T09:46:05.246Z,10.40
2018-02-04T09:48:32.617Z,10.82
2018-02-04T09:50:58.944Z,9.80
2018-02-04T09:53:25.271Z,9.80
2018-02-04T09:55:51.588Z,9.10
2018-02-04T09:58:17.976Z,9.20
2018-02-04T10:00:45.064Z,9.27
2018-02-04T10:03:11.377Z,9.85
2018-02-04T10:05:38.434Z,13.02
2018-02-04T10:08:05.486Z,9.45
2018-02-04T10:10:32.571Z,8.00
2018-02-04T10:12:58.903Z,8.43
2018-02-04T10:15:25.229Z,8.70
2018-02-04T10:17:51.541Z,7.85
2018-02-04T10:20:17.850Z,7.75
2018-02-04T10:22:44.911Z,8.20
2018-02-04T10:25:11.328Z,11.50
2018-02-04T10:27:38.496Z,9.18
2018-02-04T10:30:04.890Z,13.30
2018-02-04T10:32:32.678Z,8.10
2018-02-04T10:34:59.774Z,8.27
2018-02-04T10:37:26.243Z,8.85
2018-02-04T10:39:54.075Z,7.43
2018-02-04T10:42:20.395Z,7.85
2018-02-04T10:44:47.470Z,7.62
2018-02-04T10:47:13.799Z,8.50
2018-02-04T10:49:40.142Z,11.02
2018-02-04T10:52:06.490Z,9.55
2018-02-04T10:54:35.363Z,10.45
2018-02-04T10:57:01.704Z,8.13
2018-02-04T10:59:28.066Z,8.13
2018-02-04T11:01:54.413Z,7.65
2018-02-04T11:04:20.743Z,8.20
2018-02-04T11:06:47.077Z,7.65
2018-02-04T11:09:13.423Z,5.53
2018-02-04T11:11:40.104Z,3.70
2018-02-04T11:14:07.180Z,3.55
2018-02-04T11:16:34.501Z,4.65
2018-02-04T11:19:01.594Z,4.40
2018-02-04T11:21:27.987Z,4.35
2018-02-04T11:23:56.059Z,4.32
2018-02-04T11:26:23.160Z,3.78
2018-02-04T11:28:49.977Z,4.12
2018-02-04T11:31:18.022Z,4.12
2018-02-04T11:33:48.875Z,5.00
2018-02-04T11:36:15.431Z,5.30
2018-02-04T11:38:41.756Z,6.62
2018-02-04T11:41:08.122Z,6.70
2018-02-04T11:43:35.051Z,7.30
2018-02-04T11:46:01.360Z,6.05
2018-02-04T11:48:27.719Z,6.45
2018-02-04T11:50:54.053Z,7.22
2018-02-04T11:53:20.407Z,6.55
2018-02-04T11:55:46.750Z,6.47
2018-02-04T11:58:13.820Z,6.10
2018-02-04T12:00:40.931Z,5.28
2018-02-04T12:03:07.292Z,5.40
2018-02-04T12:05:34.355Z,6.85
2018-02-04T12:08:00.696Z,7.20
2018-02-04T12:10:27.670Z,9.90
2018-02-04T12:12:54.002Z,5.85
2018-02-04T12:15:20.341Z,5.75
2018-02-04T12:17:46.651Z,5.82
2018-02-04T12:20:12.995Z,7.25
2018-02-04T12:22:39.317Z,6.22
2018-02-04T12:25:05.651Z,6.47
2018-02-04T12:27:31.971Z,7.65
2018-02-04T12:29:59.326Z,6.10
2018-02-04T12:32:25.661Z,6.95
2018-02-04T12:34:51.978Z,7.70
2018-02-04T12:37:18.290Z,6.22
2018-02-04T12:39:45.606Z,6.78
2018-02-04T12:42:12.910Z,6.60
2018-02-04T12:44:39.226Z,8.00
2018-02-04T12:47:06.302Z,7.45
2018-02-04T12:49:32.606Z,9.00
2018-02-04T12:51:59.700Z,8.43
2018-02-04T12:54:26.027Z,7.75
2018-02-04T12:56:52.873Z,9.23
2018-02-04T12:59:19.208Z,7.90
2018-02-04T13:01:45.492Z,9.68
2018-02-04T13:04:11.782Z,9.27
2018-02-04T13:06:38.062Z,9.70
2018-02-04T13:09:04.367Z,9.75
2018-02-04T13:11:31.985Z,8.65
2018-02-04T13:14:02.620Z,6.90
2018-02-04T13:16:30.050Z,6.65
2018-02-04T13:18:56.350Z,6.45
2018-02-04T13:21:24.352Z,7.97
2018-02-04T13:23:50.675Z,9.05
2018-02-04T13:26:19.234Z,6.50
2018-02-04T13:28:47.175Z,6.55
2018-02-04T13:31:14.191Z,6.87
2018-02-04T13:33:40.485Z,6.00
2018-02-04T13:36:06.755Z,3.50
2018-02-04T13:38:33.192Z,3.42
2018-02-04T13:40:59.487Z,3.37
2018-02-04T13:43:25.819Z,4.53
2018-02-04T13:45:52.106Z,6.95
2018-02-04T13:48:19.162Z,18.48
2018-02-04T13:50:46.180Z,7.20
2018-02-04T13:53:12.454Z,4.53
2018-02-04T13:55:38.777Z,5.25
2018-02-04T13:58:05.089Z,6.53
2018-02-04T14:00:32.126Z,6.07
2018-02-04T14:02:58.407Z,7.05
2018-02-04T14:05:24.704Z,11.10
2018-02-04T14:07:51.733Z,10.85
2018-02-04T14:10:18.072Z,10.38
2018-02-04T14:12:45.135Z,4.00
2018-02-04T14:15:12.150Z,4.32
2018-02-04T14:17:38.447Z,3.60
2018-02-04T14:20:04.764Z,5.03
2018-02-04T14:22:31.078Z,3.67
2018-02-04T14:24:57.418Z,3.08
2018-02-04T14:27:23.698Z,4.55
2018-02-04T14:29:51.528Z,5.30
2018-02-04T14:32:17.845Z,3.45
2018-02-04T14:34:47.060Z,5.00
2018-02-04T14:37:13.392Z,3.80
2018-02-04T14:39:39.684Z,3.10
2018-02-04T14:42:06.746Z,3.00
2018-02-04T14:44:33.061Z,2.80
2018-02-04T14:47:00.094Z,3.30
2018-02-04T14:49:26.392Z,2.60
2018-02-04T14:51:52.659Z,4.37
2018-02-04T14:54:18.954Z,2.00
2018-02-04T14:56:45.241Z,2.30
2018-02-04T14:59:12.266Z,50.30
2018-02-04T15:01:38.555Z,2.80
2018-02-04T15:04:04.839Z,2.33
2018-02-04T15:06:31.885Z,3.30
2018-02-04T15:08:58.951Z,2.20
2018-02-04T15:11:25.283Z,3.03
2018-02-04T15:13:51.562Z,6.33
2018-02-04T15:16:17.842Z,3.07
2018-02-04T15:18:44.113Z,2.10
2018-02-04T15:21:10.398Z,2.00
2018-02-04T15:23:36.679Z,2.33
2018-02-04T15:26:03.019Z,2.30
2018-02-04T15:28:29.330Z,3.60
2018-02-04T15:30:55.606Z,4.25
2018-02-04T15:33:23.670Z,2.87
2018-02-04T15:35:49.953Z,3.28
2018-02-04T15:38:17.301Z,3.40
2018-02-04T15:40:43.589Z,3.10
2018-02-04T15:43:10.619Z,2.90
2018-02-04T15:45:36.922Z,3.17
2018-02-04T15:48:03.222Z,5.55
2018-02-04T15:50:29.519Z,7.12
2018-02-04T15:52:55.818Z,10.52
2018-02-04T15:55:22.101Z,7.65
2018-02-04T15:57:49.114Z,7.93
2018-02-04T16:00:15.443Z,11.18
2018-02-04T16:02:41.719Z,6.70
2018-02-04T16:05:08.003Z,21.12
2018-02-04T16:07:34.329Z,6.30
2018-02-04T16:10:00.643Z,5.15
2018-02-04T16:12:26.930Z,7.00
2018-02-04T16:14:53.213Z,5.87
2018-02-04T16:17:19.495Z,7.90
2018-02-04T16:19:46.518Z,7.45
2018-02-04T16:22:12.852Z,7.68
2018-02-04T16:24:39.890Z,10.23
2018-02-04T16:27:06.169Z,10.23
2018-02-04T16:29:32.459Z,8.68
2018-02-04T16:31:58.733Z,8.15
2018-02-04T16:34:25.011Z,7.10
2018-02-04T16:36:52.806Z,7.65
2018-02-04T16:39:19.842Z,9.65
2018-02-04T16:41:46.877Z,6.25
2018-02-04T16:44:13.159Z,7.97
2018-02-04T16:46:39.440Z,6.10
2018-02-04T16:49:06.515Z,7.95
2018-02-04T16:51:32.794Z,7.22
2018-02-04T16:53:59.110Z,8.13
2018-02-04T16:56:30.353Z,7.47
2018-02-04T16:58:57.654Z,29.65
2018-02-04T17:01:24.702Z,23.38
2018-02-04T17:03:51.719Z,20.48
2018-02-04T17:06:18.111Z,17.25
2018-02-04T17:08:44.392Z,12.37
2018-02-04T17:11:10.669Z,12.98
2018-02-04T17:13:36.946Z,24.40
2018-02-04T17:16:04.238Z,13.15
2018-02-04T17:18:31.250Z,14.27
2018-02-04T17:20:57.538Z,12.27
2018-02-04T17:23:23.846Z,11.50
2018-02-04T17:25:50.870Z,10.38
2018-02-04T17:28:17.915Z,12.07
2018-02-04T17:30:44.232Z,11.75
2018-02-04T17:33:10.546Z,12.15
2018-02-04T17:35:36.878Z,13.07
2018-02-04T17:38:03.158Z,10.38
2018-02-04T17:40:30.211Z,10.70
2018-02-04T17:42:56.517Z,12.15
2018-02-04T17:45:23.539Z,12.52
2018-02-04T17:47:49.889Z,12.18
2018-02-04T17:50:17.740Z,11.60
2018-02-04T17:52:44.050Z,10.55
2018-02-04T17:55:10.322Z,14.98
2018-02-04T17:57:38.370Z,13.93
2018-02-04T18:00:04.730Z,12.07
2018-02-04T18:02:31.740Z,12.55
2018-02-04T18:04:58.023Z,11.45
2018-02-04T18:07:24.315Z,11.73
2018-02-04T18:09:50.600Z,12.00
2018-02-04T18:12:16.887Z,10.95
2018-02-04T18:14:43.175Z,13.25
2018-02-04T18:17:09.501Z,13.65
2018-02-04T18:19:35.763Z,12.13
2018-02-04T18:22:02.247Z,15.85
2018-02-04T18:24:28.539Z,16.20
2018-02-04T18:26:54.901Z,16.45
2018-02-04T18:29:21.205Z,14.68
2018-02-04T18:31:47.553Z,15.80
2018-02-04T18:34:14.669Z,15.77
2018-02-04T18:36:42.377Z,14.38
2018-02-04T18:39:09.676Z,12.35
2018-02-04T18:41:35.953Z,13.73
2018-02-04T18:44:02.296Z,12.85
2018-02-04T18:46:29.325Z,14.10
2018-02-04T18:48:56.342Z,12.60
2018-02-04T18:51:23.670Z,13.43
2018-02-04T18:53:49.980Z,14.73
2018-02-04T18:56:16.259Z,13.85
2018-02-04T18:58:42.563Z,14.60
2018-02-04T19:01:08.843Z,13.35
2018-02-04T19:03:35.888Z,15.68
2018-02-04T19:06:02.919Z,13.68
2018-02-04T19:08:29.194Z,13.35
2018-02-04T19:10:55.586Z,12.73
2018-02-04T19:13:22.627Z,13.57
2018-02-04T19:15:48.922Z,13.93
2018-02-04T19:18:15.763Z,12.32
2018-02-04T19:20:42.045Z,12.15
2018-02-04T19:23:09.054Z,13.27
2018-02-04T19:25:35.328Z,14.18
2018-02-04T19:28:01.692Z,14.32
2018-02-04T19:30:27.967Z,13.40
2018-02-04T19:32:54.251Z,14.80
2018-02-04T19:35:20.551Z,15.25
2018-02-04T19:37:47.655Z,14.90
2018-02-04T19:40:14.618Z,14.90
2018-02-04T19:42:41.688Z,13.73
2018-02-04T19:45:08.717Z,16.10
2018-02-04T19:47:35.003Z,13.52
2018-02-04T19:50:01.295Z,16.37
2018-02-04T19:52:28.432Z,15.57
2018-02-04T19:54:55.469Z,15.60
2018-02-04T19:57:21.756Z,15.73
2018-02-04T19:59:48.026Z,16.40
2018-02-04T20:02:14.302Z,16.95
2018-02-04T20:04:40.634Z,14.50
2018-02-04T20:07:06.927Z,13.40
2018-02-04T20:09:33.238Z,15.43
2018-02-04T20:11:59.512Z,15.75
2018-02-04T20:14:28.223Z,15.13
2018-02-04T20:16:54.513Z,14.30
2018-02-04T20:19:20.998Z,13.30
2018-02-04T20:21:48.173Z,14.80
2018-02-04T20:24:14.542Z,16.75
2018-02-04T20:26:41.780Z,17.20
2018-02-04T20:29:08.083Z,20.65
2018-02-04T20:31:35.442Z,19.27
2018-02-04T20:34:14.210Z,17.30
2018-02-04T20:36:40.530Z,19.45
2018-02-04T20:39:07.546Z,17.10
2018-02-04T20:41:33.830Z,18.20
2018-02-04T20:44:06.849Z,19.30
2018-02-04T20:46:33.190Z,19.40
2018-02-04T20:49:00.210Z,21.80
2018-02-04T20:51:26.555Z,18.15
2018-02-04T20:53:52.906Z,21.12
2018-02-04T20:56:19.190Z,23.35
2018-02-04T20:58:45.498Z,26.00
2018-02-04T21:01:11.784Z,22.55
2018-02-04T21:03:40.203Z,28.25
2018-02-04T21:06:06.490Z,32.20
2018-02-04T21:08:32.825Z,31.83
2018-02-04T21:10:59.167Z,34.33
2018-02-04T21:13:25.462Z,35.78
2018-02-04T21:15:51.738Z,28.33
2018-02-04T21:18:18.835Z,26.92
2018-02-04T21:20:46.155Z,27.62
2018-02-04T21:23:13.171Z,44.03
2018-02-04T21:25:39.478Z,31.00
2018-02-04T21:28:05.766Z,30.62
2018-02-04T21:30:32.828Z,49.22
2018-02-04T21:32:59.859Z,35.00
2018-02-04T21:35:27.177Z,37.08
2018-02-04T21:37:53.459Z,29.77
2018-02-04T21:40:26.204Z,30.67
2018-02-04T21:42:52.475Z,28.67
2018-02-04T21:45:18.978Z,28.85
2018-02-04T21:47:54.391Z,29.63
2018-02-04T21:50:28.843Z,29.00
2018-02-04T21:52:56.122Z,28.60
2018-02-04T21:55:23.167Z,27.77
2018-02-04T21:57:51.055Z,28.33
2018-02-04T22:00:18.397Z,25.77
2018-02-04T22:02:47.693Z,27.08
2018-02-04T22:05:14.727Z,30.20
2018-02-04T22:07:41.015Z,26.85
2018-02-04T22:10:07.306Z,28.12
2018-02-04T22:15:11.051Z,31.95
2018-02-04T22:17:45.854Z,30.58
2018-02-04T22:20:13.224Z,41.15
2018-02-04T22:22:39.494Z,30.77
2018-02-04T22:25:05.777Z,29.58
2018-02-04T22:27:32.067Z,31.50
2018-02-04T22:29:58.347Z,30.05
2018-02-04T22:32:25.401Z,32.30
2018-02-04T22:34:52.414Z,27.48
2018-02-04T22:37:18.714Z,27.62
2018-02-04T22:39:44.995Z,29.55
2018-02-04T22:42:11.269Z,27.42
2018-02-04T22:44:37.548Z,31.02
2018-02-04T22:47:03.841Z,26.00
2018-02-04T22:49:30.182Z,25.70
2018-02-04T22:51:56.495Z,24.48
2018-02-04T22:54:22.811Z,23.33
2018-02-04T22:56:49.110Z,26.30
2018-02-04T22:59:15.598Z,27.08
2018-02-04T23:01:43.118Z,27.27
2018-02-04T23:04:10.275Z,25.90
2018-02-04T23:06:37.330Z,25.45
2018-02-04T23:09:04.398Z,26.40
2018-02-04T23:11:30.682Z,26.77
2018-02-04T23:13:57.175Z,24.98
2018-02-04T23:16:23.442Z,26.77
2018-02-04T23:18:49.730Z,24.90
2018-02-04T23:21:16.047Z,25.05
2018-02-04T23:23:42.350Z,22.02
2018-02-04T23:26:09.401Z,23.55
2018-02-04T23:28:36.425Z,22.33
2018-02-04T23:31:02.754Z,20.30
2018-02-04T23:33:29.063Z,18.15
2018-02-04T23:35:55.332Z,21.58
2018-02-04T23:38:23.448Z,19.62
2018-02-04T23:40:49.756Z,22.30
2018-02-04T23:43:16.798Z,20.92
2018-02-04T23:45:43.847Z,22.15
2018-02-04T23:48:10.908Z,23.35
2018-02-04T23:50:37.190Z,22.50
2018-02-04T23:53:03.526Z,25.20
2018-02-04T23:55:29.803Z,24.67
2018-02-04T23:57:58.334Z,26.52
